sensor_id;sensor_type;location;lat;lon;timestamp;pressure;altitude;pressure_sealevel;temperature;humidity
72558;BME280;60583;50.094;8.748;2023-05-07T00:01:57;100459.31;;;16.85;72.19
72558;BME280;60583;50.094;8.748;2023-05-07T00:04:22;100470.66;;;16.87;72.30
72558;BME280;60583;50.094;8.748;2023-05-07T00:06:47;100436.72;;;16.75;72.05
72558;BME280;60583;50.094;8.748;2023-05-07T00:09:13;100464.84;;;16.79;72.10
72558;BME280;60583;50.094;8.748;2023-05-07T00:11:38;100476.75;;;16.83;72.35
72558;BME280;60583;50.094;8.748;2023-05-07T00:14:04;100445.75;;;16.69;72.49
72558;BME280;60583;50.094;8.748;2023-05-07T00:16:29;100442.72;;;16.65;72.45
72558;BME280;60583;50.094;8.748;2023-05-07T00:18:55;100457.31;;;16.81;72.21
72558;BME280;60583;50.094;8.748;2023-05-07T00:21:20;100457.78;;;16.78;72.19
72558;BME280;60583;50.094;8.748;2023-05-07T00:23:46;100450.06;;;16.70;72.28
72558;BME280;60583;50.094;8.748;2023-05-07T00:26:12;100458.38;;;16.80;72.59
72558;BME280;60583;50.094;8.748;2023-05-07T00:28:37;100457.78;;;16.78;72.57
72558;BME280;60583;50.094;8.748;2023-05-07T00:31:03;100440.94;;;16.71;72.34
72558;BME280;60583;50.094;8.748;2023-05-07T00:33:28;100462.03;;;16.74;73.02
72558;BME280;60583;50.094;8.748;2023-05-07T00:35:53;100451.72;;;16.71;72.87
72558;BME280;60583;50.094;8.748;2023-05-07T00:38:22;100466.59;;;16.73;72.86
72558;BME280;60583;50.094;8.748;2023-05-07T00:40:47;100466.59;;;16.73;73.10
72558;BME280;60583;50.094;8.748;2023-05-07T00:43:12;100445.16;;;16.67;72.65
72558;BME280;60583;50.094;8.748;2023-05-07T00:45:38;100464.72;;;16.74;72.96
72558;BME280;60583;50.094;8.748;2023-05-07T00:48:04;100459.56;;;16.72;72.51
72558;BME280;60583;50.094;8.748;2023-05-07T00:50:30;100458.72;;;16.72;72.63
72558;BME280;60583;50.094;8.748;2023-05-07T00:52:56;100422.81;;;16.54;72.88
72558;BME280;60583;50.094;8.748;2023-05-07T00:55:22;100449.25;;;16.69;73.08
72558;BME280;60583;50.094;8.748;2023-05-07T00:57:49;100441.88;;;16.65;73.35
72558;BME280;60583;50.094;8.748;2023-05-07T01:00:15;100450.09;;;16.58;73.23
72558;BME280;60583;50.094;8.748;2023-05-07T01:05:17;100424.69;;;16.42;73.34
72558;BME280;60583;50.094;8.748;2023-05-07T01:07:44;100451.63;;;16.54;73.89
72558;BME280;60583;50.094;8.748;2023-05-07T01:10:11;100449.53;;;16.56;73.61
72558;BME280;60583;50.094;8.748;2023-05-07T01:12:37;100446.13;;;16.61;73.49
72558;BME280;60583;50.094;8.748;2023-05-07T01:15:05;100448.34;;;16.64;73.37
72558;BME280;60583;50.094;8.748;2023-05-07T01:17:34;100403.16;;;16.42;73.52
72558;BME280;60583;50.094;8.748;2023-05-07T01:20:00;100446.81;;;16.68;73.35
72558;BME280;60583;50.094;8.748;2023-05-07T01:22:36;100435.94;;;16.63;73.88
72558;BME280;60583;50.094;8.748;2023-05-07T01:25:03;100437.78;;;16.62;73.51
72558;BME280;60583;50.094;8.748;2023-05-07T01:27:29;100433.69;;;16.59;73.92
72558;BME280;60583;50.094;8.748;2023-05-07T01:29:54;100447.75;;;16.62;73.87
72558;BME280;60583;50.094;8.748;2023-05-07T01:32:25;100448.00;;;16.60;73.86
72558;BME280;60583;50.094;8.748;2023-05-07T01:34:52;100445.19;;;16.55;74.03
72558;BME280;60583;50.094;8.748;2023-05-07T01:37:19;100429.81;;;16.44;74.09
72558;BME280;60583;50.094;8.748;2023-05-07T01:39:46;100436.59;;;16.46;73.87
72558;BME280;60583;50.094;8.748;2023-05-07T01:42:13;100445.28;;;16.48;74.53
72558;BME280;60583;50.094;8.748;2023-05-07T01:44:38;100444.22;;;16.49;74.46
72558;BME280;60583;50.094;8.748;2023-05-07T01:47:04;100441.06;;;16.29;74.82
72558;BME280;60583;50.094;8.748;2023-05-07T01:49:30;100418.72;;;16.17;75.29
72558;BME280;60583;50.094;8.748;2023-05-07T01:51:55;100445.06;;;16.38;75.15
72558;BME280;60583;50.094;8.748;2023-05-07T01:54:25;100445.28;;;16.37;74.97
72558;BME280;60583;50.094;8.748;2023-05-07T01:56:53;100437.44;;;16.35;75.02
72558;BME280;60583;50.094;8.748;2023-05-07T01:59:18;100421.06;;;16.25;75.36
72558;BME280;60583;50.094;8.748;2023-05-07T02:01:43;100428.56;;;16.35;74.66
72558;BME280;60583;50.094;8.748;2023-05-07T02:04:09;100436.50;;;16.30;74.99
72558;BME280;60583;50.094;8.748;2023-05-07T02:06:34;100438.38;;;16.29;75.23
72558;BME280;60583;50.094;8.748;2023-05-07T02:09:00;100434.66;;;16.30;75.37
72558;BME280;60583;50.094;8.748;2023-05-07T02:11:25;100432.66;;;16.26;75.19
72558;BME280;60583;50.094;8.748;2023-05-07T02:13:50;100447.16;;;16.36;75.28
72558;BME280;60583;50.094;8.748;2023-05-07T02:16:16;100448.22;;;16.35;74.88
72558;BME280;60583;50.094;8.748;2023-05-07T02:18:41;100428.88;;;16.04;76.13
72558;BME280;60583;50.094;8.748;2023-05-07T02:21:07;100446.69;;;16.16;75.31
72558;BME280;60583;50.094;8.748;2023-05-07T02:23:32;100436.50;;;16.07;75.97
72558;BME280;60583;50.094;8.748;2023-05-07T02:25:58;100442.00;;;16.12;76.38
72558;BME280;60583;50.094;8.748;2023-05-07T02:28:23;100437.69;;;16.11;75.48
72558;BME280;60583;50.094;8.748;2023-05-07T02:30:48;100451.38;;;16.21;75.58
72558;BME280;60583;50.094;8.748;2023-05-07T02:33:14;100450.19;;;16.17;76.06
72558;BME280;60583;50.094;8.748;2023-05-07T02:35:39;100448.34;;;16.06;75.66
72558;BME280;60583;50.094;8.748;2023-05-07T02:38:05;100439.78;;;16.09;75.89
72558;BME280;60583;50.094;8.748;2023-05-07T02:40:30;100447.25;;;16.07;75.92
72558;BME280;60583;50.094;8.748;2023-05-07T02:42:59;100454.16;;;16.14;76.27
72558;BME280;60583;50.094;8.748;2023-05-07T02:45:24;100437.31;;;16.07;76.29
72558;BME280;60583;50.094;8.748;2023-05-07T02:47:50;100446.00;;;16.21;75.95
72558;BME280;60583;50.094;8.748;2023-05-07T02:50:15;100445.19;;;16.20;75.73
72558;BME280;60583;50.094;8.748;2023-05-07T02:52:40;100421.97;;;15.96;75.96
72558;BME280;60583;50.094;8.748;2023-05-07T02:55:06;100448.56;;;16.16;76.06
72558;BME280;60583;50.094;8.748;2023-05-07T02:57:31;100437.06;;;16.09;76.46
72558;BME280;60583;50.094;8.748;2023-05-07T02:59:57;100447.50;;;16.05;76.67
72558;BME280;60583;50.094;8.748;2023-05-07T03:02:23;100438.63;;;15.93;76.22
72558;BME280;60583;50.094;8.748;2023-05-07T03:04:48;100436.75;;;16.05;76.87
72558;BME280;60583;50.094;8.748;2023-05-07T03:07:14;100433.94;;;16.00;76.31
72558;BME280;60583;50.094;8.748;2023-05-07T03:09:39;100441.75;;;16.02;77.27
72558;BME280;60583;50.094;8.748;2023-05-07T03:12:05;100447.59;;;15.98;77.62
72558;BME280;60583;50.094;8.748;2023-05-07T03:14:30;100444.44;;;15.90;77.42
72558;BME280;60583;50.094;8.748;2023-05-07T03:16:56;100438.81;;;15.80;77.89
72558;BME280;60583;50.094;8.748;2023-05-07T03:19:21;100437.78;;;15.92;77.61
72558;BME280;60583;50.094;8.748;2023-05-07T03:21:46;100425.81;;;15.77;77.71
72558;BME280;60583;50.094;8.748;2023-05-07T03:24:12;100386.16;;;15.61;77.90
72558;BME280;60583;50.094;8.748;2023-05-07T03:26:37;100417.53;;;15.78;77.56
72558;BME280;60583;50.094;8.748;2023-05-07T03:29:03;100423.84;;;15.84;77.46
72558;BME280;60583;50.094;8.748;2023-05-07T03:31:28;100426.88;;;15.76;78.08
72558;BME280;60583;50.094;8.748;2023-05-07T03:33:56;100440.09;;;15.77;78.04
72558;BME280;60583;50.094;8.748;2023-05-07T03:36:22;100445.44;;;15.66;79.17
72558;BME280;60583;50.094;8.748;2023-05-07T03:38:49;100437.38;;;15.66;79.13
72558;BME280;60583;50.094;8.748;2023-05-07T03:41:15;100409.63;;;15.54;78.69
72558;BME280;60583;50.094;8.748;2023-05-07T03:43:40;100433.31;;;15.75;78.25
72558;BME280;60583;50.094;8.748;2023-05-07T03:46:06;100441.25;;;15.81;77.45
72558;BME280;60583;50.094;8.748;2023-05-07T03:48:31;100445.34;;;15.84;77.24
72558;BME280;60583;50.094;8.748;2023-05-07T03:50:57;100435.75;;;15.76;77.81
72558;BME280;60583;50.094;8.748;2023-05-07T03:53:23;100436.13;;;15.80;77.49
72558;BME280;60583;50.094;8.748;2023-05-07T03:55:48;100423.00;;;15.72;77.22
72558;BME280;60583;50.094;8.748;2023-05-07T03:58:13;100431.22;;;15.77;76.14
72558;BME280;60583;50.094;8.748;2023-05-07T04:00:39;100425.94;;;15.82;75.85
72558;BME280;60583;50.094;8.748;2023-05-07T04:03:05;100406.75;;;15.67;75.64
72558;BME280;60583;50.094;8.748;2023-05-07T04:05:31;100440.69;;;15.91;75.11
72558;BME280;60583;50.094;8.748;2023-05-07T04:07:58;100437.88;;;15.86;75.33
72558;BME280;60583;50.094;8.748;2023-05-07T04:10:23;100419.53;;;15.83;74.64
72558;BME280;60583;50.094;8.748;2023-05-07T04:12:49;100440.81;;;15.96;75.00
72558;BME280;60583;50.094;8.748;2023-05-07T04:15:14;100443.50;;;15.96;74.66
72558;BME280;60583;50.094;8.748;2023-05-07T04:17:40;100447.34;;;15.88;75.23
72558;BME280;60583;50.094;8.748;2023-05-07T04:20:09;100450.34;;;15.69;75.84
72558;BME280;60583;50.094;8.748;2023-05-07T04:22:34;100435.03;;;15.58;76.85
72558;BME280;60583;50.094;8.748;2023-05-07T04:25:00;100452.00;;;15.70;77.25
72558;BME280;60583;50.094;8.748;2023-05-07T04:27:25;100448.13;;;15.66;77.09
72558;BME280;60583;50.094;8.748;2023-05-07T04:29:51;100459.00;;;15.71;76.78
72558;BME280;60583;50.094;8.748;2023-05-07T04:32:21;100466.59;;;15.62;77.07
72558;BME280;60583;50.094;8.748;2023-05-07T04:34:46;100465.50;;;15.52;77.52
72558;BME280;60583;50.094;8.748;2023-05-07T04:37:12;100454.63;;;15.47;77.96
72558;BME280;60583;50.094;8.748;2023-05-07T04:39:37;100469.84;;;15.53;77.67
72558;BME280;60583;50.094;8.748;2023-05-07T04:42:02;100462.81;;;15.52;77.73
72558;BME280;60583;50.094;8.748;2023-05-07T04:44:28;100470.69;;;15.65;76.89
72558;BME280;60583;50.094;8.748;2023-05-07T04:46:56;100451.03;;;15.53;76.93
72558;BME280;60583;50.094;8.748;2023-05-07T04:49:21;100483.19;;;15.71;76.72
72558;BME280;60583;50.094;8.748;2023-05-07T04:51:47;100471.72;;;15.64;76.60
72558;BME280;60583;50.094;8.748;2023-05-07T04:54:12;100473.41;;;15.76;75.88
72558;BME280;60583;50.094;8.748;2023-05-07T04:56:37;100492.72;;;15.85;76.04
72558;BME280;60583;50.094;8.748;2023-05-07T04:59:03;100479.75;;;15.82;76.28
72558;BME280;60583;50.094;8.748;2023-05-07T05:01:28;100463.78;;;15.69;75.77
72558;BME280;60583;50.094;8.748;2023-05-07T05:03:53;100488.75;;;15.87;76.10
72558;BME280;60583;50.094;8.748;2023-05-07T05:06:19;100479.47;;;15.72;76.65
72558;BME280;60583;50.094;8.748;2023-05-07T05:08:45;100487.69;;;15.88;76.19
72558;BME280;60583;50.094;8.748;2023-05-07T05:11:11;100489.22;;;15.84;75.66
72558;BME280;60583;50.094;8.748;2023-05-07T05:13:36;100481.72;;;15.86;75.93
72558;BME280;60583;50.094;8.748;2023-05-07T05:16:01;100506.44;;;15.95;75.16
72558;BME280;60583;50.094;8.748;2023-05-07T05:18:27;100499.16;;;15.84;75.27
72558;BME280;60583;50.094;8.748;2023-05-07T05:20:52;100489.91;;;15.80;75.25
72558;BME280;60583;50.094;8.748;2023-05-07T05:23:17;100490.50;;;15.82;74.93
72558;BME280;60583;50.094;8.748;2023-05-07T05:25:43;100508.78;;;16.03;74.81
72558;BME280;60583;50.094;8.748;2023-05-07T05:28:08;100488.06;;;15.92;74.15
72558;BME280;60583;50.094;8.748;2023-05-07T05:30:34;100503.88;;;16.00;74.25
72558;BME280;60583;50.094;8.748;2023-05-07T05:32:59;100508.78;;;16.03;73.99
72558;BME280;60583;50.094;8.748;2023-05-07T05:35:25;100512.19;;;16.10;73.96
72558;BME280;60583;50.094;8.748;2023-05-07T05:37:50;100513.59;;;16.13;73.58
72558;BME280;60583;50.094;8.748;2023-05-07T05:40:15;100509.06;;;16.13;73.33
72558;BME280;60583;50.094;8.748;2023-05-07T05:42:41;100520.53;;;16.20;73.67
72558;BME280;60583;50.094;8.748;2023-05-07T05:45:07;100508.78;;;16.03;74.09
72558;BME280;60583;50.094;8.748;2023-05-07T05:47:32;100503.53;;;16.08;73.86
72558;BME280;60583;50.094;8.748;2023-05-07T05:49:58;100504.25;;;16.15;73.54
72558;BME280;60583;50.094;8.748;2023-05-07T05:52:23;100508.34;;;16.29;73.71
72558;BME280;60583;50.094;8.748;2023-05-07T05:54:51;100510.22;;;16.29;73.76
72558;BME280;60583;50.094;8.748;2023-05-07T05:57:17;100518.66;;;16.44;73.53
72558;BME280;60583;50.094;8.748;2023-05-07T05:59:42;100519.47;;;16.44;73.67
72558;BME280;60583;50.094;8.748;2023-05-07T06:02:07;100525.94;;;16.43;73.39
72558;BME280;60583;50.094;8.748;2023-05-07T06:04:33;100517.47;;;16.51;72.82
72558;BME280;60583;50.094;8.748;2023-05-07T06:06:58;100510.63;;;16.55;72.86
72558;BME280;60583;50.094;8.748;2023-05-07T06:09:23;100523.97;;;16.62;71.70
72558;BME280;60583;50.094;8.748;2023-05-07T06:11:49;100504.16;;;16.56;71.46
72558;BME280;60583;50.094;8.748;2023-05-07T06:14:14;100486.13;;;16.45;71.11
72558;BME280;60583;50.094;8.748;2023-05-07T06:16:40;100522.66;;;16.65;71.81
72558;BME280;60583;50.094;8.748;2023-05-07T06:19:05;100513.19;;;16.74;71.36
72558;BME280;60583;50.094;8.748;2023-05-07T06:21:31;100510.50;;;16.74;70.62
72558;BME280;60583;50.094;8.748;2023-05-07T06:23:56;100523.00;;;16.80;71.24
72558;BME280;60583;50.094;8.748;2023-05-07T06:26:21;100531.56;;;16.88;71.02
72558;BME280;60583;50.094;8.748;2023-05-07T06:28:47;100527.13;;;16.94;70.94
72558;BME280;60583;50.094;8.748;2023-05-07T06:31:14;100525.94;;;16.90;70.66
72558;BME280;60583;50.094;8.748;2023-05-07T06:33:40;100537.03;;;17.05;71.08
72558;BME280;60583;50.094;8.748;2023-05-07T06:36:05;100527.09;;;17.05;71.19
72558;BME280;60583;50.094;8.748;2023-05-07T06:38:31;100538.81;;;17.11;71.81
72558;BME280;60583;50.094;8.748;2023-05-07T06:40:56;100532.91;;;17.26;71.32
72558;BME280;60583;50.094;8.748;2023-05-07T06:43:22;100539.63;;;17.11;70.34
72558;BME280;60583;50.094;8.748;2023-05-07T06:45:47;100535.16;;;17.05;70.29
72558;BME280;60583;50.094;8.748;2023-05-07T06:48:13;100526.88;;;16.95;71.31
72558;BME280;60583;50.094;8.748;2023-05-07T06:50:38;100530.59;;;17.06;70.47
72558;BME280;60583;50.094;8.748;2023-05-07T06:53:04;100528.44;;;17.19;70.18
72558;BME280;60583;50.094;8.748;2023-05-07T06:55:29;100540.56;;;17.45;70.52
72558;BME280;60583;50.094;8.748;2023-05-07T06:57:54;100542.13;;;17.30;70.05
72558;BME280;60583;50.094;8.748;2023-05-07T07:00:20;100523.03;;;17.31;70.76
72558;BME280;60583;50.094;8.748;2023-05-07T07:02:45;100523.34;;;17.46;70.31
72558;BME280;60583;50.094;8.748;2023-05-07T07:05:10;100518.69;;;17.42;69.06
72558;BME280;60583;50.094;8.748;2023-05-07T07:07:36;100536.69;;;17.64;69.06
72558;BME280;60583;50.094;8.748;2023-05-07T07:10:01;100536.53;;;17.71;68.29
72558;BME280;60583;50.094;8.748;2023-05-07T07:12:29;100548.31;;;17.81;68.74
72558;BME280;60583;50.094;8.748;2023-05-07T07:14:55;100546.78;;;17.85;68.13
72558;BME280;60583;50.094;8.748;2023-05-07T07:17:20;100524.53;;;17.95;66.80
72558;BME280;60583;50.094;8.748;2023-05-07T07:19:46;100541.91;;;18.16;66.69
72558;BME280;60583;50.094;8.748;2023-05-07T07:22:11;100537.34;;;18.16;65.93
72558;BME280;60583;50.094;8.748;2023-05-07T07:24:36;100518.00;;;17.91;65.79
72558;BME280;60583;50.094;8.748;2023-05-07T07:27:02;100524.06;;;17.98;67.25
72558;BME280;60583;50.094;8.748;2023-05-07T07:29:27;100526.19;;;17.96;64.90
72558;BME280;60583;50.094;8.748;2023-05-07T07:31:52;100548.56;;;18.25;63.98
72558;BME280;60583;50.094;8.748;2023-05-07T07:34:18;100549.28;;;18.37;63.82
72558;BME280;60583;50.094;8.748;2023-05-07T07:36:43;100553.81;;;18.65;61.38
72558;BME280;60583;50.094;8.748;2023-05-07T07:39:09;100553.41;;;18.56;60.61
72558;BME280;60583;50.094;8.748;2023-05-07T07:41:34;100550.13;;;18.37;60.41
72558;BME280;60583;50.094;8.748;2023-05-07T07:44:00;100552.56;;;18.39;61.91
72558;BME280;60583;50.094;8.748;2023-05-07T07:46:25;100550.19;;;18.42;61.99
72558;BME280;60583;50.094;8.748;2023-05-07T07:48:51;100552.16;;;18.64;61.38
72558;BME280;60583;50.094;8.748;2023-05-07T07:51:17;100531.47;;;18.69;61.16
72558;BME280;60583;50.094;8.748;2023-05-07T07:53:42;100548.91;;;18.45;60.92
72558;BME280;60583;50.094;8.748;2023-05-07T07:56:08;100551.41;;;18.68;61.70
72558;BME280;60583;50.094;8.748;2023-05-07T07:58:34;100555.03;;;18.90;61.65
72558;BME280;60583;50.094;8.748;2023-05-07T08:01:01;100565.31;;;18.93;60.75
72558;BME280;60583;50.094;8.748;2023-05-07T08:03:26;100558.50;;;18.91;59.92
72558;BME280;60583;50.094;8.748;2023-05-07T08:05:52;100555.56;;;18.92;59.99
72558;BME280;60583;50.094;8.748;2023-05-07T08:08:18;100572.84;;;18.91;59.67
72558;BME280;60583;50.094;8.748;2023-05-07T08:10:43;100531.59;;;18.79;59.72
72558;BME280;60583;50.094;8.748;2023-05-07T08:13:09;100547.78;;;18.96;58.81
72558;BME280;60583;50.094;8.748;2023-05-07T08:15:34;100551.13;;;19.03;58.99
72558;BME280;60583;50.094;8.748;2023-05-07T08:20:26;100554.56;;;18.98;60.55
72558;BME280;60583;50.094;8.748;2023-05-07T08:22:52;100541.91;;;18.82;60.27
72558;BME280;60583;50.094;8.748;2023-05-07T08:25:17;100563.69;;;18.92;60.98
72558;BME280;60583;50.094;8.748;2023-05-07T08:27:43;100552.66;;;18.77;60.38
72558;BME280;60583;50.094;8.748;2023-05-07T08:30:10;100561.75;;;19.09;60.83
72558;BME280;60583;50.094;8.748;2023-05-07T08:32:35;100553.38;;;19.11;59.92
72558;BME280;60583;50.094;8.748;2023-05-07T08:35:01;100553.69;;;18.93;60.54
72558;BME280;60583;50.094;8.748;2023-05-07T08:37:26;100555.28;;;19.10;59.60
72558;BME280;60583;50.094;8.748;2023-05-07T08:39:52;100549.38;;;19.13;59.85
72558;BME280;60583;50.094;8.748;2023-05-07T08:42:17;100549.19;;;19.20;60.24
72558;BME280;60583;50.094;8.748;2023-05-07T08:44:45;100547.94;;;19.28;58.70
72558;BME280;60583;50.094;8.748;2023-05-07T08:47:13;100524.16;;;19.08;59.44
72558;BME280;60583;50.094;8.748;2023-05-07T08:49:39;100534.72;;;19.09;59.61
72558;BME280;60583;50.094;8.748;2023-05-07T08:52:05;100536.94;;;19.13;59.49
72558;BME280;60583;50.094;8.748;2023-05-07T08:54:31;100534.53;;;19.16;60.72
72558;BME280;60583;50.094;8.748;2023-05-07T08:56:57;100538.00;;;19.33;60.35
72558;BME280;60583;50.094;8.748;2023-05-07T08:59:22;100525.69;;;19.42;59.94
72558;BME280;60583;50.094;8.748;2023-05-07T09:01:48;100532.03;;;19.53;58.75
72558;BME280;60583;50.094;8.748;2023-05-07T09:04:13;100538.75;;;19.72;58.21
72558;BME280;60583;50.094;8.748;2023-05-07T09:06:39;100542.44;;;19.88;58.18
72558;BME280;60583;50.094;8.748;2023-05-07T09:09:07;100543.69;;;19.80;58.63
72558;BME280;60583;50.094;8.748;2023-05-07T09:11:32;100535.19;;;19.93;57.82
72558;BME280;60583;50.094;8.748;2023-05-07T09:13:58;100544.72;;;20.27;57.30
72558;BME280;60583;50.094;8.748;2023-05-07T09:16:27;100533.50;;;20.46;57.66
72558;BME280;60583;50.094;8.748;2023-05-07T09:18:54;100549.31;;;20.59;56.50
72558;BME280;60583;50.094;8.748;2023-05-07T09:21:22;100550.44;;;20.68;56.53
72558;BME280;60583;50.094;8.748;2023-05-07T09:23:52;100545.38;;;20.76;56.46
72558;BME280;60583;50.094;8.748;2023-05-07T09:26:18;100539.44;;;20.84;55.77
72558;BME280;60583;50.094;8.748;2023-05-07T09:28:46;100533.28;;;20.99;53.26
72558;BME280;60583;50.094;8.748;2023-05-07T09:31:11;100543.78;;;21.37;54.19
72558;BME280;60583;50.094;8.748;2023-05-07T09:33:38;100508.59;;;21.62;52.40
72558;BME280;60583;50.094;8.748;2023-05-07T09:36:05;100539.13;;;21.95;50.98
72558;BME280;60583;50.094;8.748;2023-05-07T09:38:34;100533.13;;;22.08;50.34
72558;BME280;60583;50.094;8.748;2023-05-07T09:41:08;100547.81;;;22.27;51.08
72558;BME280;60583;50.094;8.748;2023-05-07T09:43:36;100540.22;;;22.29;50.44
72558;BME280;60583;50.094;8.748;2023-05-07T09:46:03;100543.75;;;22.60;50.17
72558;BME280;60583;50.094;8.748;2023-05-07T09:48:32;100543.47;;;22.76;48.58
72558;BME280;60583;50.094;8.748;2023-05-07T09:51:02;100527.94;;;22.87;48.09
72558;BME280;60583;50.094;8.748;2023-05-07T09:53:30;100540.09;;;23.20;48.36
72558;BME280;60583;50.094;8.748;2023-05-07T09:55:56;100518.94;;;22.97;47.41
72558;BME280;60583;50.094;8.748;2023-05-07T09:58:22;100533.78;;;23.29;47.74
72558;BME280;60583;50.094;8.748;2023-05-07T10:00:52;100541.31;;;23.58;47.17
72558;BME280;60583;50.094;8.748;2023-05-07T10:03:19;100519.81;;;23.56;45.51
72558;BME280;60583;50.094;8.748;2023-05-07T10:05:46;100527.03;;;23.76;45.23
72558;BME280;60583;50.094;8.748;2023-05-07T10:08:13;100528.38;;;23.83;44.76
72558;BME280;60583;50.094;8.748;2023-05-07T10:10:39;100525.16;;;24.49;43.98
72558;BME280;60583;50.094;8.748;2023-05-07T10:13:05;100520.88;;;24.95;42.33
72558;BME280;60583;50.094;8.748;2023-05-07T10:15:36;100517.44;;;25.08;41.84
72558;BME280;60583;50.094;8.748;2023-05-07T10:18:03;100518.44;;;25.17;41.39
72558;BME280;60583;50.094;8.748;2023-05-07T10:20:28;100527.91;;;25.25;40.31
72558;BME280;60583;50.094;8.748;2023-05-07T10:22:55;100514.97;;;25.54;40.48
72558;BME280;60583;50.094;8.748;2023-05-07T10:25:28;100523.91;;;25.60;39.96
72558;BME280;60583;50.094;8.748;2023-05-07T10:27:57;100515.66;;;25.65;41.52
72558;BME280;60583;50.094;8.748;2023-05-07T10:30:57;100513.75;;;24.70;43.90
72558;BME280;60583;50.094;8.748;2023-05-07T10:33:27;100515.09;;;25.20;41.00
72558;BME280;60583;50.094;8.748;2023-05-07T10:36:00;100516.47;;;25.42;40.84
72558;BME280;60583;50.094;8.748;2023-05-07T10:38:29;100509.00;;;25.28;40.23
72558;BME280;60583;50.094;8.748;2023-05-07T10:40:55;100503.72;;;25.37;39.40
72558;BME280;60583;50.094;8.748;2023-05-07T10:43:21;100512.06;;;25.46;40.44
72558;BME280;60583;50.094;8.748;2023-05-07T10:46:14;100521.84;;;25.52;39.85
72558;BME280;60583;50.094;8.748;2023-05-07T10:51:32;100515.53;;;26.26;38.07
72558;BME280;60583;50.094;8.748;2023-05-07T10:56:36;100512.81;;;26.72;38.25
72558;BME280;60583;50.094;8.748;2023-05-07T11:01:56;100499.69;;;25.72;39.46
72558;BME280;60583;50.094;8.748;2023-05-07T11:04:27;100483.13;;;25.45;39.21
72558;BME280;60583;50.094;8.748;2023-05-07T11:15:05;100496.75;;;24.50;42.07
72558;BME280;60583;50.094;8.748;2023-05-07T11:17:31;100500.59;;;24.78;41.53
72558;BME280;60583;50.094;8.748;2023-05-07T11:20:00;100515.75;;;24.60;41.17
72558;BME280;60583;50.094;8.748;2023-05-07T11:25:01;100506.19;;;24.91;40.56
72558;BME280;60583;50.094;8.748;2023-05-07T11:27:28;100500.44;;;25.59;39.18
72558;BME280;60583;50.094;8.748;2023-05-07T11:29:54;100487.94;;;25.71;39.51
72558;BME280;60583;50.094;8.748;2023-05-07T11:32:23;100507.66;;;25.50;38.41
72558;BME280;60583;50.094;8.748;2023-05-07T11:34:56;100502.00;;;25.22;38.63
72558;BME280;60583;50.094;8.748;2023-05-07T11:37:23;100497.25;;;25.09;39.29
72558;BME280;60583;50.094;8.748;2023-05-07T11:39:49;100491.84;;;24.75;40.02
72558;BME280;60583;50.094;8.748;2023-05-07T11:42:28;100491.72;;;25.14;39.72
72558;BME280;60583;50.094;8.748;2023-05-07T11:44:54;100475.56;;;25.60;38.36
72558;BME280;60583;50.094;8.748;2023-05-07T11:47:20;100485.53;;;26.21;39.46
72558;BME280;60583;50.094;8.748;2023-05-07T11:49:47;100480.28;;;26.24;36.63
72558;BME280;60583;50.094;8.748;2023-05-07T11:52:14;100470.00;;;26.48;36.85
72558;BME280;60583;50.094;8.748;2023-05-07T11:54:39;100486.25;;;26.26;37.07
72558;BME280;60583;50.094;8.748;2023-05-07T11:57:05;100478.09;;;26.08;35.96
72558;BME280;60583;50.094;8.748;2023-05-07T11:59:38;100481.75;;;26.35;35.23
72558;BME280;60583;50.094;8.748;2023-05-07T12:02:03;100481.84;;;26.30;34.81
72558;BME280;60583;50.094;8.748;2023-05-07T12:04:30;100467.34;;;26.30;35.61
72558;BME280;60583;50.094;8.748;2023-05-07T12:06:55;100476.06;;;26.32;35.97
72558;BME280;60583;50.094;8.748;2023-05-07T12:09:21;100474.09;;;26.65;35.36
72558;BME280;60583;50.094;8.748;2023-05-07T12:11:46;100467.53;;;26.33;36.33
72558;BME280;60583;50.094;8.748;2023-05-07T12:14:12;100474.88;;;26.51;35.32
72558;BME280;60583;50.094;8.748;2023-05-07T12:16:39;100461.09;;;26.56;34.61
72558;BME280;60583;50.094;8.748;2023-05-07T12:19:16;100444.09;;;26.73;35.28
72558;BME280;60583;50.094;8.748;2023-05-07T12:21:42;100473.38;;;27.27;34.14
72558;BME280;60583;50.094;8.748;2023-05-07T12:24:07;100455.22;;;27.31;34.37
72558;BME280;60583;50.094;8.748;2023-05-07T12:26:37;100463.56;;;27.62;34.64
72558;BME280;60583;50.094;8.748;2023-05-07T12:29:03;100469.28;;;27.88;33.35
72558;BME280;60583;50.094;8.748;2023-05-07T12:31:28;100449.25;;;27.65;33.19
72558;BME280;60583;50.094;8.748;2023-05-07T12:33:54;100442.09;;;28.00;32.36
72558;BME280;60583;50.094;8.748;2023-05-07T12:36:19;100451.59;;;27.71;32.85
72558;BME280;60583;50.094;8.748;2023-05-07T12:38:49;100457.81;;;27.00;34.76
72558;BME280;60583;50.094;8.748;2023-05-07T12:41:15;100449.38;;;25.91;37.05
72558;BME280;60583;50.094;8.748;2023-05-07T12:43:45;100451.38;;;25.86;36.98
72558;BME280;60583;50.094;8.748;2023-05-07T12:46:11;100455.75;;;25.87;36.59
72558;BME280;60583;50.094;8.748;2023-05-07T12:48:43;100452.44;;;25.71;37.34
72558;BME280;60583;50.094;8.748;2023-05-07T12:51:10;100449.31;;;25.41;36.98
72558;BME280;60583;50.094;8.748;2023-05-07T12:53:42;100451.31;;;25.35;37.60
72558;BME280;60583;50.094;8.748;2023-05-07T12:56:08;100444.16;;;25.39;37.81
72558;BME280;60583;50.094;8.748;2023-05-07T12:58:34;100452.19;;;24.88;39.07
72558;BME280;60583;50.094;8.748;2023-05-07T13:01:03;100436.31;;;24.90;38.35
72558;BME280;60583;50.094;8.748;2023-05-07T13:03:34;100435.47;;;25.13;39.18
72558;BME280;60583;50.094;8.748;2023-05-07T13:06:04;100433.72;;;25.04;38.33
72558;BME280;60583;50.094;8.748;2023-05-07T13:08:35;100428.56;;;25.02;37.86
72558;BME280;60583;50.094;8.748;2023-05-07T13:11:03;100431.34;;;24.45;38.96